Voyager — C6WC2 — position and weather

sailwx.info

Track history (hours):
 
Tides and Currents Weather Stations Pressure Air Temp Water Temp Dewpoint Dewpoint Depression Visibility Wind Speed Wind Dir Waves Ship Positions

Voyager

Last reported at 2015-Apr-16 22:06 UTC. Time now 2015-Apr-21 11:34 UTC.
Position N 50°08' W 001°34'.

Length 151 m; draft 6 m.

Type: Passenger vessel. MMSI: 309695000.

Date/timePositionNaut miles runAvg speedWind from/ knotsBaromVisibWave heightAir tempDewpointWater temp
2015-Apr-16 22:06N 50°08' W 001°34'8 8.1
2015-Apr-16 21:05N 50°14' W 001°25'8 8.2
2015-Apr-16 20:04N 50°20' W 001°16'7 8.2
2015-Apr-16 19:10N 50°26' W 001°08'5 8.0
2015-Apr-16 18:33N 50°30' W 001°04'8 7.8
2015-Apr-16 17:33N 50°37' W 000°59'9 8.7
2015-Apr-16 16:33N 50°45' W 001°05'4 3.8
2015-Apr-16 15:32N 50°49' W 001°06'0 0.0
2015-Apr-16 14:32N 50°49' W 001°06'0 0.0
2015-Apr-16 13:32N 50°49' W 001°06'0 0.0
2015-Apr-16 12:32N 50°49' W 001°06'0 0.0
2015-Apr-16 11:32N 50°49' W 001°06'0 0.0
2015-Apr-16 10:32N 50°49' W 001°06'0 0.0
2015-Apr-16 09:32N 50°49' W 001°06'0 0.0
2015-Apr-16 08:32N 50°49' W 001°06'0 0.0
2015-Apr-16 07:32N 50°49' W 001°06'0 0.0
2015-Apr-16 06:32N 50°49' W 001°06'0 0.0
2015-Apr-16 05:32N 50°49' W 001°06'0 0.0
2015-Apr-16 04:32N 50°49' W 001°06'0 0.0
2015-Apr-16 03:32N 50°49' W 001°06'0 0.0
2015-Apr-16 02:32N 50°49' W 001°06'0 0.0
2015-Apr-16 01:32N 50°49' W 001°06'0 0.0
2015-Apr-16 00:32N 50°49' W 001°06'0 0.0
2015-Apr-15 23:32N 50°49' W 001°06'0 0.0
2015-Apr-15 22:32N 50°49' W 001°06'0 0.0
2015-Apr-15 21:32N 50°49' W 001°06'0 0.0
2015-Apr-15 20:32N 50°49' W 001°06'0 0.0
2015-Apr-15 19:32N 50°49' W 001°06'0 0.0
2015-Apr-15 18:32N 50°49' W 001°06'0 0.0
2015-Apr-15 17:32N 50°49' W 001°06'0 0.0
2015-Apr-15 16:32N 50°49' W 001°06'4 3.6
2015-Apr-15 15:33N 50°45' W 001°05'10 9.5
2015-Apr-15 14:33N 50°38' W 000°56'8 8.4
2015-Apr-15 13:33N 50°36' W 000°43'9 9.3
2015-Apr-15 12:33N 50°34' W 000°29'24 9.9
2015-Apr-15 10:11N 50°32' E 000°08'610.2
2015-Apr-15 09:33N 50°34' E 000°18'1010.4
2015-Apr-15 08:33N 50°37' E 000°34'1010.3
2015-Apr-15 07:34N 50°41' E 000°49'1010.0
2015-Apr-15 06:33N 50°46' E 001°02'1211.9
2015-Apr-15 05:33N 50°53' E 001°17'1817.7
2015-Apr-15 04:34N 51°07' E 001°35'1818.0
2015-Apr-15 03:34N 51°21' E 001°52'1717.0
2015-Apr-15 02:33N 51°35' E 002°09'1716.6
2015-Apr-15 01:33N 51°47' E 002°28'3316.3
2015-Apr-14 23:31N 52°13' E 003°01'1815.9
2015-Apr-14 22:22N 52°28' E 003°18'1316.0
2015-Apr-14 21:33N 52°38' E 003°31'1716.7
2015-Apr-14 20:33N 52°51' E 003°49'1817.6
2015-Apr-14 19:33N 53°03' E 004°10'1817.5
2015-Apr-14 18:33N 53°17' E 004°28'1716.6
2015-Apr-14 17:33N 53°30' E 004°44'1616.6
2015-Apr-14 16:34N 53°36' E 005°10'1615.5
2015-Apr-14 15:33N 53°40' E 005°36'1515.5
2015-Apr-14 14:34N 53°45' E 006°00'4512.9
2015-Apr-14 11:04N 53°57' E 007°14'815.9
2015-Apr-14 10:33N 53°59' E 007°27'1413.8
2015-Apr-14 09:33N 53°53' E 007°49'1514.9
2015-Apr-14 08:34N 53°46' E 008°11'1615.6
2015-Apr-14 07:34N 53°36' E 008°31'3 2.5
2015-Apr-14 06:34N 53°34' E 008°33'0 0.1
2015-Apr-14 05:32N 53°34' E 008°33'0 0.0
2015-Apr-14 04:29N 53°34' E 008°33'0 0.0
2015-Apr-14 03:32N 53°34' E 008°33'0 0.0
2015-Apr-14 02:29N 53°34' E 008°33'0 0.0
2015-Apr-14 01:29N 53°34' E 008°33'0 0.0
2015-Apr-14 00:32N 53°34' E 008°33'0 0.0
2015-Apr-13 23:32N 53°34' E 008°33'0 0.0
2015-Apr-13 22:29N 53°34' E 008°33'0 0.0
2015-Apr-13 21:32N 53°34' E 008°33'0 0.0
2015-Apr-13 20:32N 53°34' E 008°33'0 0.0
2015-Apr-13 19:32N 53°34' E 008°33'0 0.0
2015-Apr-13 18:29N 53°34' E 008°33'0 0.0
2015-Apr-13 17:32N 53°34' E 008°33'0 0.0
2015-Apr-13 16:32N 53°34' E 008°33'0 0.0
2015-Apr-13 15:32N 53°34' E 008°33'0 0.0
2015-Apr-13 14:32N 53°34' E 008°33'0 0.0
2015-Apr-13 13:32N 53°34' E 008°33'0 0.0
2015-Apr-13 12:32N 53°34' E 008°33'0 0.0
2015-Apr-13 11:32N 53°34' E 008°33'0 0.0
2015-Apr-13 10:32N 53°34' E 008°33'0 0.0
2015-Apr-13 09:32N 53°34' E 008°33'0 0.0
2015-Apr-13 08:32N 53°34' E 008°33'0 0.0
2015-Apr-13 07:32N 53°34' E 008°33'0 0.0
2015-Apr-13 06:32N 53°34' E 008°33'0 0.0
2015-Apr-13 05:32N 53°34' E 008°33'0 0.0
2015-Apr-13 04:32N 53°34' E 008°33'0 0.0
2015-Apr-13 03:32N 53°34' E 008°33'0 0.0
2015-Apr-13 02:32N 53°34' E 008°33'0 0.0
2015-Apr-13 01:32N 53°34' E 008°33'0 0.0
2015-Apr-13 00:29N 53°34' E 008°33'0 0.0
2015-Apr-12 23:32N 53°34' E 008°33'0 0.0
2015-Apr-12 22:32N 53°34' E 008°33'0 0.0
2015-Apr-12 21:32N 53°34' E 008°33'0 0.0
2015-Apr-12 20:32N 53°34' E 008°33'0 0.0
2015-Apr-12 19:32N 53°34' E 008°33'0 0.0
2015-Apr-12 18:32N 53°34' E 008°33'0 0.0
2015-Apr-12 17:32N 53°34' E 008°33'0 0.0
2015-Apr-12 16:32N 53°34' E 008°33'0 0.0
2015-Apr-12 15:32N 53°34' E 008°33'0 0.0
2015-Apr-12 14:31N 53°34' E 008°33'0 0.0
2015-Apr-12 13:28N 53°34' E 008°33'0 0.0
2015-Apr-12 12:31N 53°34' E 008°33'0 0.0
2015-Apr-12 11:31N 53°34' E 008°33'0 0.0
2015-Apr-12 10:31N 53°34' E 008°33'0 0.0
2015-Apr-12 09:31N 53°34' E 008°33'0 0.0
2015-Apr-12 08:31N 53°34' E 008°33'0 0.0
2015-Apr-12 07:28N 53°34' E 008°33'0 0.0
2015-Apr-12 06:28N 53°34' E 008°33'0 0.0
2015-Apr-12 05:31N 53°34' E 008°33'0 0.0
2015-Apr-12 04:31N 53°34' E 008°33'0 0.0
2015-Apr-12 03:31N 53°34' E 008°33'0 0.0
2015-Apr-12 02:31N 53°34' E 008°33'0 0.0
2015-Apr-12 01:31N 53°34' E 008°33'0 0.0
2015-Apr-12 00:31N 53°34' E 008°33'0 0.0
2015-Apr-11 23:31N 53°34' E 008°33'0 0.0
2015-Apr-11 22:31N 53°34' E 008°33'0 0.0
2015-Apr-11 21:31N 53°34' E 008°33'0 0.0
2015-Apr-11 20:31N 53°34' E 008°33'0 0.0
2015-Apr-11 19:31N 53°34' E 008°33'0 0.0
2015-Apr-11 18:31N 53°34' E 008°33'0 0.0
2015-Apr-11 17:31N 53°34' E 008°33'0 0.0
2015-Apr-11 16:31N 53°34' E 008°33'0 0.0
2015-Apr-11 15:31N 53°34' E 008°33'0 0.0
2015-Apr-11 14:31N 53°34' E 008°33'0 0.0
2015-Apr-11 13:31N 53°34' E 008°33'0 0.0
2015-Apr-11 12:31N 53°34' E 008°33'0 0.0
2015-Apr-11 11:31N 53°34' E 008°33'0 0.0
2015-Apr-11 10:28N 53°34' E 008°33'0 0.0
2015-Apr-11 09:31N 53°34' E 008°33'0 0.0
2015-Apr-11 08:28N 53°34' E 008°33'0 0.0
2015-Apr-11 07:31N 53°34' E 008°33'0 0.0
2015-Apr-11 06:31N 53°34' E 008°33'0 0.0
2015-Apr-11 05:31N 53°34' E 008°33'0 0.0
2015-Apr-11 04:31N 53°34' E 008°33'0 0.0
2015-Apr-11 03:31N 53°34' E 008°33'0 0.0
2015-Apr-11 02:31N 53°34' E 008°33'0 0.0
2015-Apr-11 01:31N 53°34' E 008°33'0 0.0
2015-Apr-11 00:31N 53°34' E 008°33'0 0.0
2015-Apr-10 23:31N 53°34' E 008°33'0 0.0
2015-Apr-10 22:31N 53°34' E 008°33'0 0.0
2015-Apr-10 21:31N 53°34' E 008°33'0 0.0
2015-Apr-10 20:31N 53°34' E 008°33'0 0.0
2015-Apr-10 19:28N 53°34' E 008°33'0 0.0
2015-Apr-10 18:31N 53°34' E 008°33'0 0.0
2015-Apr-10 17:31N 53°34' E 008°33'0 0.0
2015-Apr-10 16:31N 53°34' E 008°33'0 0.0
2015-Apr-10 15:31N 53°34' E 008°33'0 0.0
2015-Apr-10 14:31N 53°34' E 008°33'0 0.0
2015-Apr-10 13:31N 53°34' E 008°33'0 0.0
2015-Apr-10 12:31N 53°34' E 008°33'0 0.0
2015-Apr-10 11:31N 53°34' E 008°33'0 0.0
2015-Apr-10 10:31N 53°34' E 008°33'0 0.0
2015-Apr-10 09:28N 53°34' E 008°33'0 0.0
2015-Apr-10 08:31N 53°34' E 008°33'0 0.0
2015-Apr-10 07:31N 53°34' E 008°33'0 0.0
2015-Apr-10 06:31N 53°34' E 008°33'0 0.0
2015-Apr-10 05:31N 53°34' E 008°33'0 0.0
2015-Apr-10 04:31N 53°34' E 008°33'0 0.0
2015-Apr-10 03:31N 53°34' E 008°33'0 0.0
2015-Apr-10 02:31N 53°34' E 008°33'0 0.0
2015-Apr-10 01:31N 53°34' E 008°33'0 0.0
2015-Apr-10 00:31N 53°34' E 008°33'0 0.0
2015-Apr-09 23:31N 53°34' E 008°33'0 0.0
2015-Apr-09 22:31N 53°34' E 008°33'0 0.0
2015-Apr-09 21:31N 53°34' E 008°33'0 0.0
2015-Apr-09 20:31N 53°34' E 008°33'0 0.0
2015-Apr-09 19:31N 53°34' E 008°33'0 0.0
2015-Apr-09 18:31N 53°34' E 008°33'0 0.0
2015-Apr-09 17:31N 53°34' E 008°33'0 0.0
2015-Apr-09 16:31N 53°34' E 008°33'0 0.0
2015-Apr-09 15:31N 53°34' E 008°33'0 0.0
2015-Apr-09 14:31N 53°34' E 008°33'0 0.0
2015-Apr-09 13:31N 53°34' E 008°33'0 0.0
2015-Apr-09 12:31N 53°34' E 008°33'0 0.0
2015-Apr-09 11:31N 53°34' E 008°33'0 0.0
2015-Apr-09 10:31N 53°34' E 008°33'0 0.0
2015-Apr-09 09:31N 53°34' E 008°33'0 0.0
2015-Apr-09 08:31N 53°34' E 008°33'0 0.0
2015-Apr-09 07:31N 53°34' E 008°33'0 0.0
2015-Apr-09 06:31N 53°34' E 008°33'0 0.0
2015-Apr-09 05:31N 53°34' E 008°33'0 0.0
2015-Apr-09 04:31N 53°34' E 008°33'0 0.0
2015-Apr-09 03:31N 53°34' E 008°33'0 0.0
2015-Apr-09 02:31N 53°34' E 008°33'0 0.0
2015-Apr-09 01:31N 53°34' E 008°33'0 0.0
2015-Apr-09 00:31N 53°34' E 008°33'0 0.0
2015-Apr-08 23:31N 53°34' E 008°33'0 0.0
2015-Apr-08 22:31N 53°34' E 008°33'0 0.0
2015-Apr-08 21:31N 53°34' E 008°33'0 0.0
2015-Apr-08 20:31N 53°34' E 008°33'0 0.0
2015-Apr-08 19:31N 53°34' E 008°33'0 0.0
2015-Apr-08 18:31N 53°34' E 008°33'0 0.0
2015-Apr-08 17:31N 53°34' E 008°33'0 0.0
2015-Apr-08 16:31N 53°34' E 008°33'0 0.0
2015-Apr-08 15:31N 53°34' E 008°33'0 0.0
2015-Apr-08 14:31N 53°34' E 008°33'0 0.0
2015-Apr-08 13:31N 53°34' E 008°33'0 0.0
2015-Apr-08 12:31N 53°34' E 008°33'0 0.0
2015-Apr-08 11:31N 53°34' E 008°33'0 0.0
2015-Apr-08 10:31N 53°34' E 008°33'0 0.0
2015-Apr-08 09:31N 53°34' E 008°33'0 0.0
2015-Apr-08 08:31N 53°34' E 008°33'0 0.0
2015-Apr-08 07:31N 53°34' E 008°33'0 0.0
2015-Apr-08 06:31N 53°34' E 008°33'0 0.0
2015-Apr-08 05:31N 53°34' E 008°33'0 0.0
2015-Apr-08 04:31N 53°34' E 008°33'0 0.0
2015-Apr-08 03:31N 53°34' E 008°33'0 0.0
2015-Apr-08 02:31N 53°34' E 008°33'0 0.0
2015-Apr-08 01:31N 53°34' E 008°33'0 0.0
2015-Apr-08 00:31N 53°34' E 008°33'0 0.0
2015-Apr-07 23:31N 53°34' E 008°33'0 0.0
2015-Apr-07 22:31N 53°34' E 008°33'0 0.0
2015-Apr-07 21:31N 53°34' E 008°33'0 0.0
2015-Apr-07 20:31N 53°34' E 008°33'0 0.0
2015-Apr-07 19:31N 53°34' E 008°33'0 0.0
2015-Apr-07 18:31N 53°34' E 008°33'0 0.0
2015-Apr-07 17:31N 53°34' E 008°33'0 0.0
2015-Apr-07 16:31N 53°34' E 008°33'0 0.0
2015-Apr-07 15:31N 53°34' E 008°33'0 0.0
2015-Apr-07 14:31N 53°34' E 008°33'0 0.0
2015-Apr-07 13:31N 53°34' E 008°33'0 0.0
2015-Apr-07 12:31N 53°34' E 008°33'0 0.0
2015-Apr-07 11:31N 53°34' E 008°33'0 0.0
2015-Apr-07 10:31N 53°34' E 008°33'0 0.0
2015-Apr-07 09:31N 53°34' E 008°33'0 0.0
2015-Apr-07 08:31N 53°34' E 008°33'0 0.0
2015-Apr-07 07:31N 53°34' E 008°33'0 0.0
2015-Apr-07 06:31N 53°34' E 008°33'0 0.0
2015-Apr-07 05:28N 53°34' E 008°33'0 0.0
2015-Apr-07 04:31N 53°34' E 008°33'0 0.0
2015-Apr-07 03:32N 53°34' E 008°33'0 0.0
2015-Apr-07 02:31N 53°34' E 008°33'0 0.0
2015-Apr-07 01:31N 53°34' E 008°33'0 0.0
2015-Apr-07 00:31N 53°34' E 008°33'0 0.0
2015-Apr-06 23:31N 53°34' E 008°33'0 0.0
2015-Apr-06 22:31N 53°34' E 008°33'  
Track history (hours):
 
Tides and Currents Weather Stations Pressure Air Temp Water Temp Dewpoint Dewpoint Depression Visibility Wind Speed Wind Dir Waves Ship Positions

Voyager

Last reported at 2015-Apr-16 22:06 UTC. Time now 2015-Apr-21 11:34 UTC.
Position N 50°08' W 001°34'.

Length 151 m; draft 6 m.

Type: Passenger vessel. MMSI: 309695000.

Date/timePositionNaut miles runAvg speedWind from/ knotsBaromVisibWave heightAir tempDewpointWater temp
2015-Apr-16 22:06N 50°08' W 001°34'8 8.1
2015-Apr-16 21:05N 50°14' W 001°25'8 8.2
2015-Apr-16 20:04N 50°20' W 001°16'7 8.2
2015-Apr-16 19:10N 50°26' W 001°08'5 8.0
2015-Apr-16 18:33N 50°30' W 001°04'8 7.8
2015-Apr-16 17:33N 50°37' W 000°59'9 8.7
2015-Apr-16 16:33N 50°45' W 001°05'4 3.8
2015-Apr-16 15:32N 50°49' W 001°06'0 0.0
2015-Apr-16 14:32N 50°49' W 001°06'0 0.0
2015-Apr-16 13:32N 50°49' W 001°06'0 0.0
2015-Apr-16 12:32N 50°49' W 001°06'0 0.0
2015-Apr-16 11:32N 50°49' W 001°06'0 0.0
2015-Apr-16 10:32N 50°49' W 001°06'0 0.0
2015-Apr-16 09:32N 50°49' W 001°06'0 0.0
2015-Apr-16 08:32N 50°49' W 001°06'0 0.0
2015-Apr-16 07:32N 50°49' W 001°06'0 0.0
2015-Apr-16 06:32N 50°49' W 001°06'0 0.0
2015-Apr-16 05:32N 50°49' W 001°06'0 0.0
2015-Apr-16 04:32N 50°49' W 001°06'0 0.0
2015-Apr-16 03:32N 50°49' W 001°06'0 0.0
2015-Apr-16 02:32N 50°49' W 001°06'0 0.0
2015-Apr-16 01:32N 50°49' W 001°06'0 0.0
2015-Apr-16 00:32N 50°49' W 001°06'0 0.0
2015-Apr-15 23:32N 50°49' W 001°06'0 0.0
2015-Apr-15 22:32N 50°49' W 001°06'0 0.0
2015-Apr-15 21:32N 50°49' W 001°06'0 0.0
2015-Apr-15 20:32N 50°49' W 001°06'0 0.0
2015-Apr-15 19:32N 50°49' W 001°06'0 0.0
2015-Apr-15 18:32N 50°49' W 001°06'0 0.0
2015-Apr-15 17:32N 50°49' W 001°06'0 0.0
2015-Apr-15 16:32N 50°49' W 001°06'4 3.6
2015-Apr-15 15:33N 50°45' W 001°05'10 9.5
2015-Apr-15 14:33N 50°38' W 000°56'8 8.4
2015-Apr-15 13:33N 50°36' W 000°43'9 9.3
2015-Apr-15 12:33N 50°34' W 000°29'24 9.9
2015-Apr-15 10:11N 50°32' E 000°08'610.2
2015-Apr-15 09:33N 50°34' E 000°18'1010.4
2015-Apr-15 08:33N 50°37' E 000°34'1010.3
2015-Apr-15 07:34N 50°41' E 000°49'1010.0
2015-Apr-15 06:33N 50°46' E 001°02'1211.9
2015-Apr-15 05:33N 50°53' E 001°17'1817.7
2015-Apr-15 04:34N 51°07' E 001°35'1818.0
2015-Apr-15 03:34N 51°21' E 001°52'1717.0
2015-Apr-15 02:33N 51°35' E 002°09'1716.6
2015-Apr-15 01:33N 51°47' E 002°28'3316.3
2015-Apr-14 23:31N 52°13' E 003°01'1815.9
2015-Apr-14 22:22N 52°28' E 003°18'1316.0
2015-Apr-14 21:33N 52°38' E 003°31'1716.7
2015-Apr-14 20:33N 52°51' E 003°49'1817.6
2015-Apr-14 19:33N 53°03' E 004°10'1817.5
2015-Apr-14 18:33N 53°17' E 004°28'1716.6
2015-Apr-14 17:33N 53°30' E 004°44'1616.6
2015-Apr-14 16:34N 53°36' E 005°10'1615.5
2015-Apr-14 15:33N 53°40' E 005°36'1515.5
2015-Apr-14 14:34N 53°45' E 006°00'4512.9
2015-Apr-14 11:04N 53°57' E 007°14'815.9
2015-Apr-14 10:33N 53°59' E 007°27'1413.8
2015-Apr-14 09:33N 53°53' E 007°49'1514.9
2015-Apr-14 08:34N 53°46' E 008°11'1615.6
2015-Apr-14 07:34N 53°36' E 008°31'3 2.5
2015-Apr-14 06:34N 53°34' E 008°33'0 0.1
2015-Apr-14 05:32N 53°34' E 008°33'0 0.0
2015-Apr-14 04:29N 53°34' E 008°33'0 0.0
2015-Apr-14 03:32N 53°34' E 008°33'0 0.0
2015-Apr-14 02:29N 53°34' E 008°33'0 0.0
2015-Apr-14 01:29N 53°34' E 008°33'0 0.0
2015-Apr-14 00:32N 53°34' E 008°33'0 0.0
2015-Apr-13 23:32N 53°34' E 008°33'0 0.0
2015-Apr-13 22:29N 53°34' E 008°33'0 0.0
2015-Apr-13 21:32N 53°34' E 008°33'0 0.0
2015-Apr-13 20:32N 53°34' E 008°33'0 0.0
2015-Apr-13 19:32N 53°34' E 008°33'0 0.0
2015-Apr-13 18:29N 53°34' E 008°33'0 0.0
2015-Apr-13 17:32N 53°34' E 008°33'0 0.0
2015-Apr-13 16:32N 53°34' E 008°33'0 0.0
2015-Apr-13 15:32N 53°34' E 008°33'0 0.0
2015-Apr-13 14:32N 53°34' E 008°33'0 0.0
2015-Apr-13 13:32N 53°34' E 008°33'0 0.0
2015-Apr-13 12:32N 53°34' E 008°33'0 0.0
2015-Apr-13 11:32N 53°34' E 008°33'0 0.0
2015-Apr-13 10:32N 53°34' E 008°33'0 0.0
2015-Apr-13 09:32N 53°34' E 008°33'0 0.0
2015-Apr-13 08:32N 53°34' E 008°33'0 0.0
2015-Apr-13 07:32N 53°34' E 008°33'0 0.0
2015-Apr-13 06:32N 53°34' E 008°33'0 0.0
2015-Apr-13 05:32N 53°34' E 008°33'0 0.0
2015-Apr-13 04:32N 53°34' E 008°33'0 0.0
2015-Apr-13 03:32N 53°34' E 008°33'0 0.0
2015-Apr-13 02:32N 53°34' E 008°33'0 0.0
2015-Apr-13 01:32N 53°34' E 008°33'0 0.0
2015-Apr-13 00:29N 53°34' E 008°33'0 0.0
2015-Apr-12 23:32N 53°34' E 008°33'0 0.0
2015-Apr-12 22:32N 53°34' E 008°33'0 0.0
2015-Apr-12 21:32N 53°34' E 008°33'0 0.0
2015-Apr-12 20:32N 53°34' E 008°33'0 0.0
2015-Apr-12 19:32N 53°34' E 008°33'0 0.0
2015-Apr-12 18:32N 53°34' E 008°33'0 0.0
2015-Apr-12 17:32N 53°34' E 008°33'0 0.0
2015-Apr-12 16:32N 53°34' E 008°33'0 0.0
2015-Apr-12 15:32N 53°34' E 008°33'0 0.0
2015-Apr-12 14:31N 53°34' E 008°33'0 0.0
2015-Apr-12 13:28N 53°34' E 008°33'0 0.0
2015-Apr-12 12:31N 53°34' E 008°33'0 0.0
2015-Apr-12 11:31N 53°34' E 008°33'0 0.0
2015-Apr-12 10:31N 53°34' E 008°33'0 0.0
2015-Apr-12 09:31N 53°34' E 008°33'0 0.0
2015-Apr-12 08:31N 53°34' E 008°33'0 0.0
2015-Apr-12 07:28N 53°34' E 008°33'0 0.0
2015-Apr-12 06:28N 53°34' E 008°33'0 0.0
2015-Apr-12 05:31N 53°34' E 008°33'0 0.0
2015-Apr-12 04:31N 53°34' E 008°33'0 0.0
2015-Apr-12 03:31N 53°34' E 008°33'0 0.0
2015-Apr-12 02:31N 53°34' E 008°33'0 0.0
2015-Apr-12 01:31N 53°34' E 008°33'0 0.0
2015-Apr-12 00:31N 53°34' E 008°33'0 0.0
2015-Apr-11 23:31N 53°34' E 008°33'0 0.0
2015-Apr-11 22:31N 53°34' E 008°33'0 0.0
2015-Apr-11 21:31N 53°34' E 008°33'0 0.0
2015-Apr-11 20:31N 53°34' E 008°33'0 0.0
2015-Apr-11 19:31N 53°34' E 008°33'0 0.0
2015-Apr-11 18:31N 53°34' E 008°33'0 0.0
2015-Apr-11 17:31N 53°34' E 008°33'0 0.0
2015-Apr-11 16:31N 53°34' E 008°33'0 0.0
2015-Apr-11 15:31N 53°34' E 008°33'0 0.0
2015-Apr-11 14:31N 53°34' E 008°33'0 0.0
2015-Apr-11 13:31N 53°34' E 008°33'0 0.0
2015-Apr-11 12:31N 53°34' E 008°33'0 0.0
2015-Apr-11 11:31N 53°34' E 008°33'0 0.0
2015-Apr-11 10:28N 53°34' E 008°33'0 0.0
2015-Apr-11 09:31N 53°34' E 008°33'0 0.0
2015-Apr-11 08:28N 53°34' E 008°33'0 0.0
2015-Apr-11 07:31N 53°34' E 008°33'0 0.0
2015-Apr-11 06:31N 53°34' E 008°33'0 0.0
2015-Apr-11 05:31N 53°34' E 008°33'0 0.0
2015-Apr-11 04:31N 53°34' E 008°33'0 0.0
2015-Apr-11 03:31N 53°34' E 008°33'0 0.0
2015-Apr-11 02:31N 53°34' E 008°33'0 0.0
2015-Apr-11 01:31N 53°34' E 008°33'0 0.0
2015-Apr-11 00:31N 53°34' E 008°33'0 0.0
2015-Apr-10 23:31N 53°34' E 008°33'0 0.0
2015-Apr-10 22:31N 53°34' E 008°33'0 0.0
2015-Apr-10 21:31N 53°34' E 008°33'0 0.0
2015-Apr-10 20:31N 53°34' E 008°33'0 0.0
2015-Apr-10 19:28N 53°34' E 008°33'0 0.0
2015-Apr-10 18:31N 53°34' E 008°33'0 0.0
2015-Apr-10 17:31N 53°34' E 008°33'0 0.0
2015-Apr-10 16:31N 53°34' E 008°33'0 0.0
2015-Apr-10 15:31N 53°34' E 008°33'0 0.0
2015-Apr-10 14:31N 53°34' E 008°33'0 0.0
2015-Apr-10 13:31N 53°34' E 008°33'0 0.0
2015-Apr-10 12:31N 53°34' E 008°33'0 0.0
2015-Apr-10 11:31N 53°34' E 008°33'0 0.0
2015-Apr-10 10:31N 53°34' E 008°33'0 0.0
2015-Apr-10 09:28N 53°34' E 008°33'0 0.0
2015-Apr-10 08:31N 53°34' E 008°33'0 0.0
2015-Apr-10 07:31N 53°34' E 008°33'0 0.0
2015-Apr-10 06:31N 53°34' E 008°33'0 0.0
2015-Apr-10 05:31N 53°34' E 008°33'0 0.0
2015-Apr-10 04:31N 53°34' E 008°33'0 0.0
2015-Apr-10 03:31N 53°34' E 008°33'0 0.0
2015-Apr-10 02:31N 53°34' E 008°33'0 0.0
2015-Apr-10 01:31N 53°34' E 008°33'0 0.0
2015-Apr-10 00:31N 53°34' E 008°33'0 0.0
2015-Apr-09 23:31N 53°34' E 008°33'0 0.0
2015-Apr-09 22:31N 53°34' E 008°33'0 0.0
2015-Apr-09 21:31N 53°34' E 008°33'0 0.0
2015-Apr-09 20:31N 53°34' E 008°33'0 0.0
2015-Apr-09 19:31N 53°34' E 008°33'0 0.0
2015-Apr-09 18:31N 53°34' E 008°33'0 0.0
2015-Apr-09 17:31N 53°34' E 008°33'0 0.0
2015-Apr-09 16:31N 53°34' E 008°33'0 0.0
2015-Apr-09 15:31N 53°34' E 008°33'0 0.0
2015-Apr-09 14:31N 53°34' E 008°33'0 0.0
2015-Apr-09 13:31N 53°34' E 008°33'0 0.0
2015-Apr-09 12:31N 53°34' E 008°33'0 0.0
2015-Apr-09 11:31N 53°34' E 008°33'0 0.0
2015-Apr-09 10:31N 53°34' E 008°33'0 0.0
2015-Apr-09 09:31N 53°34' E 008°33'0 0.0
2015-Apr-09 08:31N 53°34' E 008°33'0 0.0
2015-Apr-09 07:31N 53°34' E 008°33'0 0.0
2015-Apr-09 06:31N 53°34' E 008°33'0 0.0
2015-Apr-09 05:31N 53°34' E 008°33'0 0.0
2015-Apr-09 04:31N 53°34' E 008°33'0 0.0
2015-Apr-09 03:31N 53°34' E 008°33'0 0.0
2015-Apr-09 02:31N 53°34' E 008°33'0 0.0
2015-Apr-09 01:31N 53°34' E 008°33'0 0.0
2015-Apr-09 00:31N 53°34' E 008°33'0 0.0
2015-Apr-08 23:31N 53°34' E 008°33'0 0.0
2015-Apr-08 22:31N 53°34' E 008°33'0 0.0
2015-Apr-08 21:31N 53°34' E 008°33'0 0.0
2015-Apr-08 20:31N 53°34' E 008°33'0 0.0
2015-Apr-08 19:31N 53°34' E 008°33'0 0.0
2015-Apr-08 18:31N 53°34' E 008°33'0 0.0
2015-Apr-08 17:31N 53°34' E 008°33'0 0.0
2015-Apr-08 16:31N 53°34' E 008°33'0 0.0
2015-Apr-08 15:31N 53°34' E 008°33'0 0.0
2015-Apr-08 14:31N 53°34' E 008°33'0 0.0
2015-Apr-08 13:31N 53°34' E 008°33'0 0.0
2015-Apr-08 12:31N 53°34' E 008°33'0 0.0
2015-Apr-08 11:31N 53°34' E 008°33'0 0.0
2015-Apr-08 10:31N 53°34' E 008°33'0 0.0
2015-Apr-08 09:31N 53°34' E 008°33'0 0.0
2015-Apr-08 08:31N 53°34' E 008°33'0 0.0
2015-Apr-08 07:31N 53°34' E 008°33'0 0.0
2015-Apr-08 06:31N 53°34' E 008°33'0 0.0
2015-Apr-08 05:31N 53°34' E 008°33'0 0.0
2015-Apr-08 04:31N 53°34' E 008°33'0 0.0
2015-Apr-08 03:31N 53°34' E 008°33'0 0.0
2015-Apr-08 02:31N 53°34' E 008°33'0 0.0
2015-Apr-08 01:31N 53°34' E 008°33'0 0.0
2015-Apr-08 00:31N 53°34' E 008°33'0 0.0
2015-Apr-07 23:31N 53°34' E 008°33'0 0.0
2015-Apr-07 22:31N 53°34' E 008°33'0 0.0
2015-Apr-07 21:31N 53°34' E 008°33'0 0.0
2015-Apr-07 20:31N 53°34' E 008°33'0 0.0
2015-Apr-07 19:31N 53°34' E 008°33'0 0.0
2015-Apr-07 18:31N 53°34' E 008°33'0 0.0
2015-Apr-07 17:31N 53°34' E 008°33'0 0.0
2015-Apr-07 16:31N 53°34' E 008°33'0 0.0
2015-Apr-07 15:31N 53°34' E 008°33'0 0.0
2015-Apr-07 14:31N 53°34' E 008°33'0 0.0
2015-Apr-07 13:31N 53°34' E 008°33'0 0.0
2015-Apr-07 12:31N 53°34' E 008°33'0 0.0
2015-Apr-07 11:31N 53°34' E 008°33'0 0.0
2015-Apr-07 10:31N 53°34' E 008°33'0 0.0
2015-Apr-07 09:31N 53°34' E 008°33'0 0.0
2015-Apr-07 08:31N 53°34' E 008°33'0 0.0
2015-Apr-07 07:31N 53°34' E 008°33'0 0.0
2015-Apr-07 06:31N 53°34' E 008°33'0 0.0
2015-Apr-07 05:28N 53°34' E 008°33'0 0.0
2015-Apr-07 04:31N 53°34' E 008°33'0 0.0
2015-Apr-07 03:32N 53°34' E 008°33'0 0.0
2015-Apr-07 02:31N 53°34' E 008°33'0 0.0
2015-Apr-07 01:31N 53°34' E 008°33'0 0.0
2015-Apr-07 00:31N 53°34' E 008°33'0 0.0
2015-Apr-06 23:31N 53°34' E 008°33'0 0.0
2015-Apr-06 22:31N 53°34' E 008°33'  

Dump ship's entire track history